sensor_id;sensor_type;location;lat;lon;timestamp;pressure;altitude;pressure_sealevel;temperature;humidity
62976;BME280;49071;0.000;0.000;2023-08-06T04:15:33;100001.09;;;23.04;
62976;BME280;49071;0.000;0.000;2023-08-06T04:18:33;99990.38;;;23.06;
62976;BME280;49071;0.000;0.000;2023-08-06T04:21:33;99991.22;;;23.06;
62976;BME280;49071;0.000;0.000;2023-08-06T04:24:33;99987.91;;;23.04;
62976;BME280;49071;0.000;0.000;2023-08-06T04:27:33;99986.28;;;23.03;
62976;BME280;49071;0.000;0.000;2023-08-06T04:30:34;99984.47;;;23.04;
62976;BME280;49071;0.000;0.000;2023-08-06T04:33:34;99966.81;;;23.04;
62976;BME280;49071;0.000;0.000;2023-08-06T04:36:34;99973.09;;;23.03;
62976;BME280;49071;0.000;0.000;2023-08-06T04:39:34;99964.16;;;23.04;
62976;BME280;49071;0.000;0.000;2023-08-06T04:42:34;99960.88;;;23.02;
62976;BME280;49071;0.000;0.000;2023-08-06T04:45:35;99958.22;;;23.02;
62976;BME280;49071;0.000;0.000;2023-08-06T04:48:35;99956.59;;;23.01;
62976;BME280;49071;0.000;0.000;2023-08-06T04:51:35;99942.41;;;23.02;
62976;BME280;49071;0.000;0.000;2023-08-06T04:54:35;99935.50;;;23.01;
62976;BME280;49071;0.000;0.000;2023-08-06T04:57:35;99941.44;;;22.95;
62976;BME280;49071;0.000;0.000;2023-08-06T05:00:35;99933.69;;;22.94;
62976;BME280;49071;0.000;0.000;2023-08-06T05:03:36;99930.38;;;22.92;
62976;BME280;49071;0.000;0.000;2023-08-06T05:06:36;99927.09;;;22.90;
62976;BME280;49071;0.000;0.000;2023-08-06T05:09:38;99926.13;;;22.91;
62976;BME280;49071;0.000;0.000;2023-08-06T05:12:38;99922.28;;;22.93;
62976;BME280;49071;0.000;0.000;2023-08-06T05:15:38;99907.66;;;22.91;
62976;BME280;49071;0.000;0.000;2023-08-06T05:18:42;99917.34;;;22.90;
62976;BME280;49071;0.000;0.000;2023-08-06T05:21:42;99911.25;;;22.90;
62976;BME280;49071;0.000;0.000;2023-08-06T05:24:42;99912.25;;;22.89;
62976;BME280;49071;0.000;0.000;2023-08-06T05:27:42;99905.84;;;22.91;
62976;BME280;49071;0.000;0.000;2023-08-06T05:30:42;99904.84;;;22.92;
62976;BME280;49071;0.000;0.000;2023-08-06T05:33:43;99905.66;;;22.93;
62976;BME280;49071;0.000;0.000;2023-08-06T05:36:43;99899.22;;;22.95;
62976;BME280;49071;0.000;0.000;2023-08-06T05:39:43;99897.75;;;22.93;
62976;BME280;49071;0.000;0.000;2023-08-06T05:42:43;99890.97;;;22.90;
62976;BME280;49071;0.000;0.000;2023-08-06T05:45:44;99888.53;;;22.89;
62976;BME280;49071;0.000;0.000;2023-08-06T05:48:44;99882.09;;;22.91;
62976;BME280;49071;0.000;0.000;2023-08-06T05:51:44;99888.19;;;22.92;
62976;BME280;49071;0.000;0.000;2023-08-06T05:54:45;99891.81;;;22.91;
62976;BME280;49071;0.000;0.000;2023-08-06T05:57:45;99882.72;;;22.93;
62976;BME280;49071;0.000;0.000;2023-08-06T06:00:45;99882.25;;;22.90;
62976;BME280;49071;0.000;0.000;2023-08-06T06:03:45;99880.94;;;22.86;
62976;BME280;49071;0.000;0.000;2023-08-06T06:06:45;99875.00;;;22.84;
62976;BME280;49071;0.000;0.000;2023-08-06T06:09:46;99875.34;;;22.81;
62976;BME280;49071;0.000;0.000;2023-08-06T06:12:46;99862.63;;;22.69;
62976;BME280;49071;0.000;0.000;2023-08-06T06:15:46;99867.25;;;22.75;
62976;BME280;49071;0.000;0.000;2023-08-06T06:18:47;99867.91;;;22.77;
62976;BME280;49071;0.000;0.000;2023-08-06T06:21:47;99861.00;;;22.76;
62976;BME280;49071;0.000;0.000;2023-08-06T06:24:47;99863.63;;;22.76;
62976;BME280;49071;0.000;0.000;2023-08-06T06:27:47;99853.25;;;22.74;
62976;BME280;49071;0.000;0.000;2023-08-06T06:30:47;99855.22;;;22.72;
62976;BME280;49071;0.000;0.000;2023-08-06T06:33:47;99846.66;;;22.78;
62976;BME280;49071;0.000;0.000;2023-08-06T06:36:48;99852.09;;;22.77;
62976;BME280;49071;0.000;0.000;2023-08-06T06:39:48;99849.78;;;22.74;
62976;BME280;49071;0.000;0.000;2023-08-06T06:42:48;99846.81;;;22.77;
62976;BME280;49071;0.000;0.000;2023-08-06T06:45:52;99851.78;;;22.80;
62976;BME280;49071;0.000;0.000;2023-08-06T06:48:52;99859.66;;;22.72;
62976;BME280;49071;0.000;0.000;2023-08-06T06:51:53;99851.09;;;22.78;
62976;BME280;49071;0.000;0.000;2023-08-06T06:54:53;99851.09;;;22.78;
62976;BME280;49071;0.000;0.000;2023-08-06T06:57:53;99846.00;;;22.68;
62976;BME280;49071;0.000;0.000;2023-08-06T07:00:53;99835.28;;;22.70;
62976;BME280;49071;0.000;0.000;2023-08-06T07:03:53;99842.03;;;22.72;
62976;BME280;49071;0.000;0.000;2023-08-06T07:06:53;99846.66;;;22.70;
62976;BME280;49071;0.000;0.000;2023-08-06T07:09:54;99838.28;;;22.67;
62976;BME280;49071;0.000;0.000;2023-08-06T07:12:54;99838.59;;;22.64;
62976;BME280;49071;0.000;0.000;2023-08-06T07:15:54;99839.72;;;22.69;
62976;BME280;49071;0.000;0.000;2023-08-06T07:18:55;99824.75;;;22.62;
62976;BME280;49071;0.000;0.000;2023-08-06T07:21:55;99832.47;;;22.71;
62976;BME280;49071;0.000;0.000;2023-08-06T07:24:56;99833.28;;;22.72;
62976;BME280;49071;0.000;0.000;2023-08-06T07:27:56;99834.97;;;22.73;
62976;BME280;49071;0.000;0.000;2023-08-06T07:30:56;99834.63;;;22.60;
62976;BME280;49071;0.000;0.000;2023-08-06T07:33:57;99829.22;;;22.61;
62976;BME280;49071;0.000;0.000;2023-08-06T07:36:57;99833.81;;;22.59;
62976;BME280;49071;0.000;0.000;2023-08-06T07:39:57;99824.22;;;22.74;
62976;BME280;49071;0.000;0.000;2023-08-06T07:42:57;99821.44;;;22.83;
62976;BME280;49071;0.000;0.000;2023-08-06T07:46:00;99808.59;;;22.88;
62976;BME280;49071;0.000;0.000;2023-08-06T07:49:01;99813.53;;;22.91;
62976;BME280;49071;0.000;0.000;2023-08-06T07:52:02;99804.28;;;22.95;
62976;BME280;49071;0.000;0.000;2023-08-06T07:55:03;99812.19;;;22.95;
62976;BME280;49071;0.000;0.000;2023-08-06T07:58:04;99801.63;;;22.95;
62976;BME280;49071;0.000;0.000;2023-08-06T08:01:05;99803.25;;;22.96;
62976;BME280;49071;0.000;0.000;2023-08-06T08:04:06;99800.28;;;22.99;
62976;BME280;49071;0.000;0.000;2023-08-06T08:07:06;99803.75;;;23.00;
62976;BME280;49071;0.000;0.000;2023-08-06T08:10:06;99799.31;;;23.00;
62976;BME280;49071;0.000;0.000;2023-08-06T08:13:06;99792.38;;;22.99;
62976;BME280;49071;0.000;0.000;2023-08-06T08:16:07;99792.38;;;22.99;
62976;BME280;49071;0.000;0.000;2023-08-06T08:19:07;99789.75;;;22.99;
62976;BME280;49071;0.000;0.000;2023-08-06T08:22:07;99791.41;;;23.00;
62976;BME280;49071;0.000;0.000;2023-08-06T08:25:07;99781.81;;;22.99;
62976;BME280;49071;0.000;0.000;2023-08-06T08:28:08;99785.28;;;23.00;
62976;BME280;49071;0.000;0.000;2023-08-06T08:31:08;99783.50;;;23.00;
62976;BME280;49071;0.000;0.000;2023-08-06T08:34:09;99776.56;;;22.99;
62976;BME280;49071;0.000;0.000;2023-08-06T08:37:09;99779.19;;;22.99;
62976;BME280;49071;0.000;0.000;2023-08-06T08:40:09;99780.84;;;23.00;
62976;BME280;49071;0.000;0.000;2023-08-06T08:43:11;99774.72;;;23.00;
62976;BME280;49071;0.000;0.000;2023-08-06T08:46:11;99766.97;;;23.06;
62976;BME280;49071;0.000;0.000;2023-08-06T08:49:12;99765.16;;;23.07;
62976;BME280;49071;0.000;0.000;2023-08-06T08:52:12;99761.88;;;23.05;
62976;BME280;49071;0.000;0.000;2023-08-06T08:55:14;99764.19;;;23.00;
62976;BME280;49071;0.000;0.000;2023-08-06T08:58:15;99756.94;;;23.02;
62976;BME280;49071;0.000;0.000;2023-08-06T09:01:15;99748.84;;;23.03;
62976;BME280;49071;0.000;0.000;2023-08-06T09:04:15;99739.28;;;23.02;
62976;BME280;49071;0.000;0.000;2023-08-06T09:07:17;99740.94;;;23.03;
62976;BME280;49071;0.000;0.000;2023-08-06T09:10:18;99733.03;;;23.03;
62976;BME280;49071;0.000;0.000;2023-08-06T09:13:21;99727.75;;;23.03;
62976;BME280;49071;0.000;0.000;2023-08-06T09:16:23;99718.03;;;23.04;
62976;BME280;49071;0.000;0.000;2023-08-06T09:19:23;99717.19;;;23.03;
62976;BME280;49071;0.000;0.000;2023-08-06T09:22:23;99718.03;;;23.04;
62976;BME280;49071;0.000;0.000;2023-08-06T09:25:25;99718.03;;;23.04;
62976;BME280;49071;0.000;0.000;2023-08-06T09:28:38;99706.66;;;23.03;
62976;BME280;49071;0.000;0.000;2023-08-06T09:31:40;99704.63;;;23.05;
62976;BME280;49071;0.000;0.000;2023-08-06T09:34:45;99698.41;;;23.06;
62976;BME280;49071;0.000;0.000;2023-08-06T09:37:46;99690.81;;;23.03;
62976;BME280;49071;0.000;0.000;2023-08-06T09:40:46;99690.81;;;23.03;
62976;BME280;49071;0.000;0.000;2023-08-06T09:43:46;99694.09;;;23.05;
62976;BME280;49071;0.000;0.000;2023-08-06T09:46:47;99686.38;;;23.04;
62976;BME280;49071;0.000;0.000;2023-08-06T09:49:48;99685.56;;;23.03;
62976;BME280;49071;0.000;0.000;2023-08-06T09:52:48;99686.38;;;23.04;
62976;BME280;49071;0.000;0.000;2023-08-06T09:55:50;99688.81;;;23.05;
62976;BME280;49071;0.000;0.000;2023-08-06T09:58:50;99688.81;;;23.05;
62976;BME280;49071;0.000;0.000;2023-08-06T10:01:51;99682.91;;;23.03;
62976;BME280;49071;0.000;0.000;2023-08-06T10:04:51;99678.44;;;23.04;
62976;BME280;49071;0.000;0.000;2023-08-06T10:07:52;99677.63;;;23.03;
62976;BME280;49071;0.000;0.000;2023-08-06T10:10:53;99670.53;;;23.04;
62976;BME280;49071;0.000;0.000;2023-08-06T10:13:58;99665.25;;;23.04;
62976;BME280;49071;0.000;0.000;2023-08-06T10:16:58;99657.16;;;23.05;
62976;BME280;49071;0.000;0.000;2023-08-06T10:19:59;99657.16;;;23.05;
62976;BME280;49071;0.000;0.000;2023-08-06T10:23:03;99652.69;;;23.06;
62976;BME280;49071;0.000;0.000;2023-08-06T10:26:03;99652.69;;;23.06;
62976;BME280;49071;0.000;0.000;2023-08-06T10:32:31;99654.53;;;23.05;
62976;BME280;49071;0.000;0.000;2023-08-06T10:38:49;99630.78;;;23.05;
62976;BME280;49071;0.000;0.000;2023-08-06T10:41:50;99636.06;;;23.05;
62976;BME280;49071;0.000;0.000;2023-08-06T10:48:09;99627.97;;;23.07;
62976;BME280;49071;0.000;0.000;2023-08-06T10:51:10;99619.25;;;23.06;
62976;BME280;49071;0.000;0.000;2023-08-06T10:54:10;99625.50;;;23.05;
62976;BME280;49071;0.000;0.000;2023-08-06T10:57:11;99613.13;;;23.06;
62976;BME280;49071;0.000;0.000;2023-08-06T11:00:11;99609.69;;;23.05;
62976;BME280;49071;0.000;0.000;2023-08-06T11:03:14;99609.69;;;23.05;
62976;BME280;49071;0.000;0.000;2023-08-06T11:06:18;99602.78;;;23.04;
62976;BME280;49071;0.000;0.000;2023-08-06T11:09:19;99593.84;;;23.05;
62976;BME280;49071;0.000;0.000;2023-08-06T11:12:19;99584.13;;;23.06;
62976;BME280;49071;0.000;0.000;2023-08-06T11:15:22;99589.41;;;23.06;
62976;BME280;49071;0.000;0.000;2023-08-06T11:18:23;99588.56;;;23.05;
62976;BME280;49071;0.000;0.000;2023-08-06T11:21:24;99578.03;;;23.05;
62976;BME280;49071;0.000;0.000;2023-08-06T11:24:25;99580.66;;;23.05;
62976;BME280;49071;0.000;0.000;2023-08-06T11:27:26;99581.66;;;23.04;
62976;BME280;49071;0.000;0.000;2023-08-06T11:30:27;99574.75;;;23.03;
62976;BME280;49071;0.000;0.000;2023-08-06T11:33:27;99576.38;;;23.04;
62976;BME280;49071;0.000;0.000;2023-08-06T11:36:28;99571.94;;;23.05;
62976;BME280;49071;0.000;0.000;2023-08-06T11:39:28;99571.94;;;23.05;
62976;BME280;49071;0.000;0.000;2023-08-06T11:42:30;99572.75;;;23.05;
62976;BME280;49071;0.000;0.000;2023-08-06T11:45:30;99574.41;;;23.06;
62976;BME280;49071;0.000;0.000;2023-08-06T11:48:31;99575.22;;;23.07;
62976;BME280;49071;0.000;0.000;2023-08-06T11:51:32;99583.97;;;23.07;
62976;BME280;49071;0.000;0.000;2023-08-06T11:54:32;99574.41;;;23.06;
62976;BME280;49071;0.000;0.000;2023-08-06T11:57:37;99580.50;;;23.07;
62976;BME280;49071;0.000;0.000;2023-08-06T12:00:39;99586.75;;;23.06;
62976;BME280;49071;0.000;0.000;2023-08-06T12:03:39;99585.78;;;23.07;
62976;BME280;49071;0.000;0.000;2023-08-06T12:06:43;99578.03;;;23.05;
62976;BME280;49071;0.000;0.000;2023-08-06T12:09:43;99583.31;;;23.05;
62976;BME280;49071;0.000;0.000;2023-08-06T12:12:44;99587.75;;;23.05;
62976;BME280;49071;0.000;0.000;2023-08-06T12:15:44;99584.31;;;23.04;
62976;BME280;49071;0.000;0.000;2023-08-06T12:18:45;99581.66;;;23.04;
62976;BME280;49071;0.000;0.000;2023-08-06T12:21:45;99586.94;;;23.04;
62976;BME280;49071;0.000;0.000;2023-08-06T12:24:45;99580.03;;;23.03;
62976;BME280;49071;0.000;0.000;2023-08-06T12:27:46;99580.03;;;23.03;
62976;BME280;49071;0.000;0.000;2023-08-06T12:30:46;99583.50;;;23.04;
62976;BME280;49071;0.000;0.000;2023-08-06T12:33:47;99576.56;;;23.03;
62976;BME280;49071;0.000;0.000;2023-08-06T12:36:47;99569.50;;;23.03;
62976;BME280;49071;0.000;0.000;2023-08-06T12:39:47;99565.03;;;23.04;
62976;BME280;49071;0.000;0.000;2023-08-06T12:42:47;99560.72;;;23.03;
62976;BME280;49071;0.000;0.000;2023-08-06T12:45:48;99556.31;;;23.03;
62976;BME280;49071;0.000;0.000;2023-08-06T12:48:49;99548.38;;;23.03;
62976;BME280;49071;0.000;0.000;2023-08-06T12:51:49;99548.38;;;23.03;
62976;BME280;49071;0.000;0.000;2023-08-06T12:54:49;99553.66;;;23.03;
62976;BME280;49071;0.000;0.000;2023-08-06T12:57:49;99549.19;;;23.04;
62976;BME280;49071;0.000;0.000;2023-08-06T13:00:49;99551.84;;;23.04;
62976;BME280;49071;0.000;0.000;2023-08-06T13:03:50;99543.09;;;23.03;
62976;BME280;49071;0.000;0.000;2023-08-06T13:06:50;99539.63;;;23.03;
62976;BME280;49071;0.000;0.000;2023-08-06T13:09:50;99543.09;;;23.03;
62976;BME280;49071;0.000;0.000;2023-08-06T13:12:50;99543.09;;;23.03;
62976;BME280;49071;0.000;0.000;2023-08-06T13:15:50;99542.09;;;23.04;
62976;BME280;49071;0.000;0.000;2023-08-06T13:18:50;99537.84;;;23.03;
62976;BME280;49071;0.000;0.000;2023-08-06T13:24:51;99542.09;;;23.04;
62976;BME280;49071;0.000;0.000;2023-08-06T13:27:51;99548.38;;;23.03;
62976;BME280;49071;0.000;0.000;2023-08-06T13:30:51;99548.38;;;23.03;
62976;BME280;49071;0.000;0.000;2023-08-06T13:33:51;99548.38;;;23.03;
62976;BME280;49071;0.000;0.000;2023-08-06T13:36:52;99547.53;;;23.03;
62976;BME280;49071;0.000;0.000;2023-08-06T13:39:52;99552.00;;;23.02;
62976;BME280;49071;0.000;0.000;2023-08-06T13:42:52;99555.44;;;23.03;
62976;BME280;49071;0.000;0.000;2023-08-06T13:45:52;99558.94;;;23.03;
62976;BME280;49071;0.000;0.000;2023-08-06T13:48:52;99561.56;;;23.03;
62976;BME280;49071;0.000;0.000;2023-08-06T13:51:53;99553.66;;;23.03;
62976;BME280;49071;0.000;0.000;2023-08-06T13:54:53;99560.91;;;23.01;
62976;BME280;49071;0.000;0.000;2023-08-06T13:57:53;99561.56;;;23.03;
62976;BME280;49071;0.000;0.000;2023-08-06T14:00:53;99553.81;;;23.02;
62976;BME280;49071;0.000;0.000;2023-08-06T14:03:54;99559.09;;;23.02;
62976;BME280;49071;0.000;0.000;2023-08-06T14:06:54;99560.91;;;23.01;
62976;BME280;49071;0.000;0.000;2023-08-06T14:09:54;99557.28;;;23.02;
62976;BME280;49071;0.000;0.000;2023-08-06T14:12:57;99553.81;;;23.02;
62976;BME280;49071;0.000;0.000;2023-08-06T14:15:57;99548.53;;;23.02;
62976;BME280;49071;0.000;0.000;2023-08-06T14:18:57;99551.19;;;23.02;
62976;BME280;49071;0.000;0.000;2023-08-06T14:21:57;99555.66;;;23.01;
62976;BME280;49071;0.000;0.000;2023-08-06T14:24:58;99555.66;;;23.01;
62976;BME280;49071;0.000;0.000;2023-08-06T14:27:58;99555.66;;;23.01;
62976;BME280;49071;0.000;0.000;2023-08-06T14:30:58;99555.66;;;23.01;
62976;BME280;49071;0.000;0.000;2023-08-06T14:33:58;99559.28;;;23.00;
62976;BME280;49071;0.000;0.000;2023-08-06T14:36:59;99559.28;;;23.00;
62976;BME280;49071;0.000;0.000;2023-08-06T14:39:59;99566.19;;;23.01;
62976;BME280;49071;0.000;0.000;2023-08-06T14:42:59;99572.28;;;23.02;
62976;BME280;49071;0.000;0.000;2023-08-06T14:46:00;99569.66;;;23.02;
62976;BME280;49071;0.000;0.000;2023-08-06T14:49:00;99568.63;;;23.03;
62976;BME280;49071;0.000;0.000;2023-08-06T14:52:00;99573.91;;;23.03;
62976;BME280;49071;0.000;0.000;2023-08-06T14:55:01;99568.81;;;23.01;
62976;BME280;49071;0.000;0.000;2023-08-06T14:58:03;99568.81;;;23.01;
62976;BME280;49071;0.000;0.000;2023-08-06T15:01:04;99566.19;;;23.01;
62976;BME280;49071;0.000;0.000;2023-08-06T15:04:04;99571.47;;;23.01;
62976;BME280;49071;0.000;0.000;2023-08-06T15:07:04;99568.81;;;23.01;
62976;BME280;49071;0.000;0.000;2023-08-06T15:10:04;99574.09;;;23.01;
62976;BME280;49071;0.000;0.000;2023-08-06T15:13:05;99568.00;;;23.01;
62976;BME280;49071;0.000;0.000;2023-08-06T15:16:06;99582.03;;;23.01;
62976;BME280;49071;0.000;0.000;2023-08-06T15:19:06;99584.66;;;23.01;
62976;BME280;49071;0.000;0.000;2023-08-06T15:22:06;99575.94;;;23.01;
62976;BME280;49071;0.000;0.000;2023-08-06T15:25:07;99578.56;;;23.01;
62976;BME280;49071;0.000;0.000;2023-08-06T15:28:07;99585.66;;;23.00;
62976;BME280;49071;0.000;0.000;2023-08-06T15:31:07;99585.47;;;23.02;
62976;BME280;49071;0.000;0.000;2023-08-06T15:34:08;99592.56;;;23.01;
62976;BME280;49071;0.000;0.000;2023-08-06T15:37:09;99579.53;;;23.00;
62976;BME280;49071;0.000;0.000;2023-08-06T15:40:09;99590.94;;;23.00;
62976;BME280;49071;0.000;0.000;2023-08-06T15:43:09;99595.38;;;23.00;
62976;BME280;49071;0.000;0.000;2023-08-06T15:46:10;99593.72;;;22.99;
62976;BME280;49071;0.000;0.000;2023-08-06T15:49:10;99584.81;;;23.00;
62976;BME280;49071;0.000;0.000;2023-08-06T15:52:10;99589.28;;;22.99;
62976;BME280;49071;0.000;0.000;2023-08-06T15:55:10;99600.63;;;23.00;
62976;BME280;49071;0.000;0.000;2023-08-06T15:58:10;99584.00;;;22.99;
62976;BME280;49071;0.000;0.000;2023-08-06T16:01:11;99580.38;;;23.00;
62976;BME280;49071;0.000;0.000;2023-08-06T16:04:11;99576.91;;;23.00;
62976;BME280;49071;0.000;0.000;2023-08-06T16:07:11;99589.75;;;23.03;
62976;BME280;49071;0.000;0.000;2023-08-06T16:10:11;99583.97;;;23.07;
62976;BME280;49071;0.000;0.000;2023-08-06T16:13:11;99579.97;;;23.11;
62976;BME280;49071;0.000;0.000;2023-08-06T16:16:12;99578.78;;;23.13;
62976;BME280;49071;0.000;0.000;2023-08-06T16:19:12;99583.25;;;23.13;
62976;BME280;49071;0.000;0.000;2023-08-06T16:22:12;99577.97;;;23.13;
62976;BME280;49071;0.000;0.000;2023-08-06T16:25:12;99584.06;;;23.13;
62976;BME280;49071;0.000;0.000;2023-08-06T16:28:13;99584.22;;;23.12;
62976;BME280;49071;0.000;0.000;2023-08-06T16:31:13;99576.16;;;23.13;
62976;BME280;49071;0.000;0.000;2023-08-06T16:34:13;99579.63;;;23.14;
62976;BME280;49071;0.000;0.000;2023-08-06T16:37:13;99575.34;;;23.13;
62976;BME280;49071;0.000;0.000;2023-08-06T16:40:14;99572.69;;;23.13;
62976;BME280;49071;0.000;0.000;2023-08-06T16:43:15;99575.34;;;23.13;
62976;BME280;49071;0.000;0.000;2023-08-06T16:46:16;99570.06;;;23.13;
62976;BME280;49071;0.000;0.000;2023-08-06T16:49:16;99571.69;;;23.14;
62976;BME280;49071;0.000;0.000;2023-08-06T16:52:16;99569.88;;;23.14;
62976;BME280;49071;0.000;0.000;2023-08-06T16:55:17;99572.50;;;23.14;
62976;BME280;49071;0.000;0.000;2023-08-06T16:58:19;99568.06;;;23.15;
62976;BME280;49071;0.000;0.000;2023-08-06T17:01:20;99562.78;;;23.15;
62976;BME280;49071;0.000;0.000;2023-08-06T17:04:20;99567.25;;;23.14;
62976;BME280;49071;0.000;0.000;2023-08-06T17:07:21;99567.25;;;23.14;
62976;BME280;49071;0.000;0.000;2023-08-06T17:10:21;99562.78;;;23.15;
62976;BME280;49071;0.000;0.000;2023-08-06T17:13:23;99568.06;;;23.15;
62976;BME280;49071;0.000;0.000;2023-08-06T17:16:24;99573.97;;;23.17;
62976;BME280;49071;0.000;0.000;2023-08-06T17:19:24;99564.91;;;23.19;
62976;BME280;49071;0.000;0.000;2023-08-06T17:22:24;99571.00;;;23.20;
62976;BME280;49071;0.000;0.000;2023-08-06T17:25:24;99578.25;;;23.18;
62976;BME280;49071;0.000;0.000;2023-08-06T17:28:24;99573.16;;;23.16;
62976;BME280;49071;0.000;0.000;2023-08-06T17:31:24;99566.88;;;23.17;
62976;BME280;49071;0.000;0.000;2023-08-06T17:34:25;99563.44;;;23.17;
62976;BME280;49071;0.000;0.000;2023-08-06T17:37:27;99563.44;;;23.17;
62976;BME280;49071;0.000;0.000;2023-08-06T17:40:28;99566.88;;;23.17;
62976;BME280;49071;0.000;0.000;2023-08-06T17:43:28;99572.16;;;23.17;
62976;BME280;49071;0.000;0.000;2023-08-06T17:46:28;99569.53;;;23.17;
62976;BME280;49071;0.000;0.000;2023-08-06T17:49:29;99566.72;;;23.19;
62976;BME280;49071;0.000;0.000;2023-08-06T17:52:29;99565.72;;;23.20;
62976;BME280;49071;0.000;0.000;2023-08-06T17:55:30;99560.44;;;23.20;
62976;BME280;49071;0.000;0.000;2023-08-06T17:58:30;99565.06;;;23.18;
62976;BME280;49071;0.000;0.000;2023-08-06T18:01:30;99568.91;;;23.15;
62976;BME280;49071;0.000;0.000;2023-08-06T18:04:30;99573.31;;;23.15;
62976;BME280;49071;0.000;0.000;2023-08-06T18:07:31;99576.81;;;23.15;
62976;BME280;49071;0.000;0.000;2023-08-06T18:10:31;99581.91;;;23.17;
62976;BME280;49071;0.000;0.000;2023-08-06T18:13:31;99593.28;;;23.17;
62976;BME280;49071;0.000;0.000;2023-08-06T18:16:32;99589.81;;;23.17;
62976;BME280;49071;0.000;0.000;2023-08-06T18:19:32;99591.44;;;23.18;
62976;BME280;49071;0.000;0.000;2023-08-06T18:22:32;99598.38;;;23.19;
62976;BME280;49071;0.000;0.000;2023-08-06T18:25:33;99598.19;;;23.20;
62976;BME280;49071;0.000;0.000;2023-08-06T18:28:34;99602.50;;;23.21;
62976;BME280;49071;0.000;0.000;2023-08-06T18:31:35;99606.94;;;23.21;
62976;BME280;49071;0.000;0.000;2023-08-06T18:34:36;99606.09;;;23.20;
62976;BME280;49071;0.000;0.000;2023-08-06T18:37:37;99603.47;;;23.20;
62976;BME280;49071;0.000;0.000;2023-08-06T18:40:38;99613.88;;;23.22;
62976;BME280;49071;0.000;0.000;2023-08-06T18:43:39;99613.22;;;23.20;
62976;BME280;49071;0.000;0.000;2023-08-06T18:46:39;99597.38;;;23.20;
62976;BME280;49071;0.000;0.000;2023-08-06T18:49:39;99602.66;;;23.20;
62976;BME280;49071;0.000;0.000;2023-08-06T18:52:39;99606.94;;;23.21;
62976;BME280;49071;0.000;0.000;2023-08-06T18:55:49;99612.84;;;23.23;
62976;BME280;49071;0.000;0.000;2023-08-06T18:58:49;99606.75;;;23.22;
62976;BME280;49071;0.000;0.000;2023-08-06T19:01:49;99599.84;;;23.21;
62976;BME280;49071;0.000;0.000;2023-08-06T19:04:50;99604.94;;;23.23;
62976;BME280;49071;0.000;0.000;2023-08-06T19:07:51;99591.75;;;23.23;
62976;BME280;49071;0.000;0.000;2023-08-06T19:10:51;99597.03;;;23.23;
62976;BME280;49071;0.000;0.000;2023-08-06T19:13:51;99586.47;;;23.23;
62976;BME280;49071;0.000;0.000;2023-08-06T19:16:51;99583.19;;;23.21;
62976;BME280;49071;0.000;0.000;2023-08-06T19:19:51;99587.28;;;23.23;
62976;BME280;49071;0.000;0.000;2023-08-06T19:22:51;99586.66;;;23.21;
62976;BME280;49071;0.000;0.000;2023-08-06T19:25:52;99592.09;;;23.20;
62976;BME280;49071;0.000;0.000;2023-08-06T19:28:52;99596.38;;;23.21;
62976;BME280;49071;0.000;0.000;2023-08-06T19:31:52;99597.38;;;23.20;
62976;BME280;49071;0.000;0.000;2023-08-06T19:34:53;99596.38;;;23.21;
62976;BME280;49071;0.000;0.000;2023-08-06T19:37:53;99596.38;;;23.21;
62976;BME280;49071;0.000;0.000;2023-08-06T19:41:03;99601.50;;;23.22;
62976;BME280;49071;0.000;0.000;2023-08-06T19:44:04;99603.47;;;23.20;
62976;BME280;49071;0.000;0.000;2023-08-06T19:47:04;99600.84;;;23.20;
62976;BME280;49071;0.000;0.000;2023-08-06T19:50:04;99601.03;;;23.19;
62976;BME280;49071;0.000;0.000;2023-08-06T19:53:05;99608.94;;;23.19;
62976;BME280;49071;0.000;0.000;2023-08-06T19:56:05;99601.03;;;23.19;
